^^
Saratoga-Weather Station Historical Data
Daily Summary for June 15, 2021 Units:  Metric    English   Both
Daily Weekly Monthly Yearly Custom
  High: Low: Average:
Temperature: 15.1 °C 3.2 °C 9.3 °C
Dew Point: 10.7 °C 2.6 °C 7.4 °C
Humidity: 97% 71% 88%
Wind Speed: 13km/h 0km/h 1.4km/h
Wind Gust: 16.1km/h - -
Wind- - SW
Pressure: 1021.7 hPa 1018.0 hPa -
Precipitation: 0.0 mm    
Historical Graphs
 
 
Tabular Data for June 15, 2021
Time Temperature Dew Point Pressure Wind Wind Speed Wind Gust Humidity Rainfall Rate (Hourly) solar
00:03 6.5 °C 5.8 °C 1021.7 hPa Calm     95% 0.0 mm 0 W/m2
00:08 6.4 °C 5.7 °C 1021.7 hPa Calm     95% 0.0 mm 0 W/m2
00:13 6.3 °C 5.6 °C 1021.7 hPa Calm     95% 0.0 mm 0 W/m2
00:18 6.3 °C 5.6 °C 1021.7 hPa Calm     95% 0.0 mm 0 W/m2
00:23 6.3 °C 5.6 °C 1021.7 hPa Calm     95% 0.0 mm 0 W/m2
00:28 6.2 °C 5.5 °C 1021.3 hPa Calm     95% 0.0 mm 0 W/m2
00:33 6.2 °C 5.5 °C 1021.3 hPa Calm     95% 0.0 mm 0 W/m2
00:38 6.2 °C 5.5 °C 1021.3 hPa Calm     95% 0.0 mm 0 W/m2
00:43 6.2 °C 5.5 °C 1021.3 hPa Calm     95% 0.0 mm 0 W/m2
00:48 6.2 °C 5.5 °C 1021.3 hPa Calm     95% 0.0 mm 0 W/m2
00:53 6.1 °C 5.4 °C 1021.0 hPa Calm     95% 0.0 mm 0 W/m2
00:58 6.2 °C 5.6 °C 1021.0 hPa Calm     96% 0.0 mm 0 W/m2
01:03 6.1 °C 5.4 °C 1021.0 hPa Calm     95% 0.0 mm 0 W/m2
01:08 6.1 °C 5.4 °C 1021.0 hPa Calm     95% 0.0 mm 0 W/m2
01:13 6.1 °C 5.4 °C 1021.0 hPa Calm     95% 0.0 mm 0 W/m2
01:18 5.9 °C 5.2 °C 1020.7 hPa Calm     95% 0.0 mm 0 W/m2
01:23 5.9 °C 5.2 °C 1020.7 hPa Calm     95% 0.0 mm 0 W/m2
01:28 5.8 °C 5.1 °C 1020.7 hPa Calm     95% 0.0 mm 0 W/m2
01:33 5.7 °C 5 °C 1020.7 hPa Calm     95% 0.0 mm 0 W/m2
01:38 5.7 °C 5.1 °C 1020.7 hPa Calm     96% 0.0 mm 0 W/m2
01:43 5.7 °C 5 °C 1020.7 hPa Calm     95% 0.0 mm 0 W/m2
01:48 5.7 °C 5 °C 1020.7 hPa Calm     95% 0.0 mm 0 W/m2
01:53 5.6 °C 4.9 °C 1020.7 hPa Calm     95% 0.0 mm 0 W/m2
01:58 5.6 °C 5 °C 1020.3 hPa Calm     96% 0.0 mm 0 W/m2
02:03 5.6 °C 5 °C 1020.3 hPa Calm     96% 0.0 mm 0 W/m2
02:08 5.6 °C 5 °C 1020.3 hPa Calm     96% 0.0 mm 0 W/m2
02:13 5.6 °C 5 °C 1020.3 hPa Calm     96% 0.0 mm 0 W/m2
02:18 5.6 °C 5 °C 1020.3 hPa Calm     96% 0.0 mm 0 W/m2
02:23 5.6 °C 5 °C 1020.3 hPa Calm     96% 0.0 mm 0 W/m2
02:28 5.5 °C 4.9 °C 1020.3 hPa Calm     96% 0.0 mm 0 W/m2
02:33 5.5 °C 4.9 °C 1020.0 hPa Calm     96% 0.0 mm 0 W/m2
02:38 5.4 °C 4.8 °C 1020.0 hPa Calm     96% 0.0 mm 0 W/m2
02:43 5.4 °C 4.8 °C 1020.0 hPa Calm     96% 0.0 mm 0 W/m2
02:48 5.4 °C 4.8 °C 1020.0 hPa Calm     96% 0.0 mm 0 W/m2
02:53 5.4 °C 4.8 °C 1020.0 hPa Calm     96% 0.0 mm 0 W/m2
02:58 5.3 °C 4.7 °C 1020.0 hPa Calm     96% 0.0 mm 0 W/m2
03:03 5.3 °C 4.7 °C 1020.0 hPa Calm     96% 0.0 mm 0 W/m2
03:08 5.2 °C 4.6 °C 1020.0 hPa Calm     96% 0.0 mm 0 W/m2
03:13 5.2 °C 4.6 °C 1020.0 hPa Calm     96% 0.0 mm 0 W/m2
03:18 5.2 °C 4.6 °C 1019.6 hPa Calm     96% 0.0 mm 0 W/m2
03:23 5.1 °C 4.5 °C 1019.6 hPa Calm     96% 0.0 mm 0 W/m2
03:28 5 °C 4.4 °C 1019.6 hPa Calm     96% 0.0 mm 0 W/m2
03:33 5 °C 4.4 °C 1019.6 hPa Calm     96% 0.0 mm 0 W/m2
03:38 5 °C 4.4 °C 1019.6 hPa Calm     96% 0.0 mm 0 W/m2
03:43 5 °C 4.4 °C 1019.6 hPa Calm     96% 0.0 mm 0 W/m2
03:48 5.1 °C 4.5 °C 1019.6 hPa Calm     96% 0.0 mm 0 W/m2
03:53 5.1 °C 4.5 °C 1019.6 hPa Calm     96% 0.0 mm 0 W/m2
03:58 5.1 °C 4.5 °C 1019.6 hPa Calm     96% 0.0 mm 0 W/m2
04:03 5 °C 4.4 °C 1019.3 hPa Calm     96% 0.0 mm 0 W/m2
04:08 4.9 °C 4.3 °C 1019.3 hPa Calm     96% 0.0 mm 0 W/m2
04:13 4.9 °C 4.3 °C 1019.3 hPa Calm     96% 0.0 mm 0 W/m2
04:18 4.8 °C 4.2 °C 1019.3 hPa Calm     96% 0.0 mm 0 W/m2
04:23 4.8 °C 4.2 °C 1019.3 hPa Calm     96% 0.0 mm 0 W/m2
04:28 4.7 °C 4.1 °C 1019.3 hPa Calm     96% 0.0 mm 0 W/m2
04:33 4.7 °C 4.1 °C 1019.0 hPa Calm     96% 0.0 mm 0 W/m2
04:38 4.6 °C 4 °C 1019.0 hPa Calm     96% 0.0 mm 0 W/m2
04:43 4.7 °C 4.1 °C 1019.0 hPa Calm     96% 0.0 mm 0 W/m2
04:48 4.8 °C 4.2 °C 1019.0 hPa WSW 1.4 km/h 3.2 km/h 96% 0.0 mm 0 W/m2
04:53 4.8 °C 4.2 °C 1019.0 hPa Calm   1.6 km/h 96% 0.0 mm 0 W/m2
04:58 4.9 °C 4.3 °C 1019.0 hPa Calm   3.2 km/h 96% 0.0 mm 0 W/m2
05:03 4.9 °C 4.3 °C 1019.0 hPa Calm     96% 0.0 mm 0 W/m2
05:08 4.8 °C 4.2 °C 1019.0 hPa Calm     96% 0.0 mm 0 W/m2
05:13 4.8 °C 4.2 °C 1019.0 hPa Calm     96% 0.0 mm 0 W/m2
05:18 4.7 °C 4.1 °C 1019.0 hPa Calm   1.6 km/h 96% 0.0 mm 0 W/m2
05:23 4.7 °C 4.1 °C 1019.0 hPa Calm     96% 0.0 mm 0 W/m2
05:29 4.7 °C 4.1 °C 1019.0 hPa Calm     96% 0.0 mm 0 W/m2
05:34 4.6 °C 4 °C 1019.0 hPa Calm     96% 0.0 mm 0 W/m2
05:39 4.6 °C 4 °C 1019.0 hPa SSW 1.4 km/h 3.2 km/h 96% 0.0 mm 0 W/m2
05:44 4.6 °C 4 °C 1019.0 hPa South 3.2 km/h 3.2 km/h 96% 0.0 mm 0 W/m2
05:49 4.6 °C 4 °C 1019.0 hPa Calm   1.6 km/h 96% 0.0 mm 0 W/m2
05:54 4.6 °C 4 °C 1019.0 hPa Calm     96% 0.0 mm 0 W/m2
05:59 4.5 °C 3.9 °C 1019.0 hPa Calm   1.6 km/h 96% 0.0 mm 0 W/m2
06:04 4.4 °C 3.8 °C 1019.0 hPa Calm     96% 0.0 mm 0 W/m2
06:09 4.4 °C 3.8 °C 1019.0 hPa Calm   1.6 km/h 96% 0.0 mm 0 W/m2
06:14 4.3 °C 3.7 °C 1019.0 hPa Calm     96% 0.0 mm 0 W/m2
06:19 4.2 °C 3.6 °C 1019.0 hPa Calm     96% 0.0 mm 0 W/m2
06:24 4.1 °C 3.5 °C 1019.0 hPa Calm     96% 0.0 mm 0 W/m2
06:29 4.1 °C 3.5 °C 1018.6 hPa Calm     96% 0.0 mm 0 W/m2
06:34 4 °C 3.4 °C 1018.6 hPa Calm     96% 0.0 mm 0 W/m2
06:39 4 °C 3.4 °C 1018.6 hPa Calm     96% 0.0 mm 0 W/m2
06:44 3.9 °C 3.3 °C 1018.6 hPa Calm     96% 0.0 mm 0 W/m2
06:49 3.9 °C 3.3 °C 1018.6 hPa Calm     96% 0.0 mm 0 W/m2
06:54 3.9 °C 3.3 °C 1018.6 hPa Calm     96% 0.0 mm 0 W/m2
06:59 3.8 °C 3.2 °C 1018.6 hPa Calm     96% 0.0 mm 0 W/m2
07:04 3.8 °C 3.2 °C 1018.6 hPa Calm     96% 0.0 mm 0 W/m2
07:09 3.7 °C 3.1 °C 1018.6 hPa Calm     96% 0.0 mm 0 W/m2
07:14 3.7 °C 3.1 °C 1018.6 hPa Calm     96% 0.0 mm 0 W/m2
07:19 3.6 °C 3 °C 1018.6 hPa Calm     96% 0.0 mm 0 W/m2
07:24 3.6 °C 3 °C 1018.6 hPa Calm     96% 0.0 mm 0 W/m2
07:29 3.6 °C 3 °C 1018.6 hPa Calm   3.2 km/h 96% 0.0 mm 0 W/m2
07:34 3.6 °C 3 °C 1018.3 hPa Calm     96% 0.0 mm 0 W/m2
07:39 3.5 °C 2.9 °C 1018.3 hPa Calm   1.6 km/h 96% 0.0 mm 0 W/m2
07:44 3.4 °C 2.8 °C 1018.6 hPa Calm     96% 0.0 mm 0 W/m2
07:49 3.4 °C 2.8 °C 1018.3 hPa Calm     96% 0.0 mm 0 W/m2
07:54 3.3 °C 2.7 °C 1018.3 hPa Calm     96% 0.0 mm 0 W/m2
07:59 3.3 °C 2.7 °C 1018.3 hPa Calm     96% 0.0 mm 5 W/m2
08:04 3.3 °C 2.7 °C 1018.3 hPa Calm     96% 0.0 mm 9 W/m2
08:09 3.2 °C 2.6 °C 1018.3 hPa Calm     96% 0.0 mm 11 W/m2
08:14 3.2 °C 2.6 °C 1018.3 hPa Calm     96% 0.0 mm 14 W/m2
08:19 3.2 °C 2.6 °C 1018.6 hPa Calm     96% 0.0 mm 16 W/m2
08:24 3.3 °C 2.7 °C 1018.3 hPa Calm     96% 0.0 mm 19 W/m2
08:29 3.3 °C 2.7 °C 1018.3 hPa Calm     96% 0.0 mm 26 W/m2
08:34 3.4 °C 2.8 °C 1018.3 hPa Calm     96% 0.0 mm 30 W/m2
08:39 3.6 °C 3.2 °C 1018.6 hPa Calm     97% 0.0 mm 32 W/m2
08:44 3.8 °C 3.4 °C 1018.6 hPa Calm     97% 0.0 mm 33 W/m2
08:49 3.8 °C 3.4 °C 1018.6 hPa Calm     97% 0.0 mm 44 W/m2
08:54 3.9 °C 3.5 °C 1018.6 hPa Calm     97% 0.0 mm 56 W/m2
08:59 4.1 °C 3.7 °C 1018.6 hPa Calm     97% 0.0 mm 58 W/m2
09:04 4.2 °C 3.8 °C 1018.6 hPa Calm     97% 0.0 mm 67 W/m2
09:09 4.3 °C 3.9 °C 1018.6 hPa Calm     97% 0.0 mm 83 W/m2
09:14 4.5 °C 4.1 °C 1018.6 hPa Calm     97% 0.0 mm 165 W/m2
09:19 4.8 °C 4.4 °C 1018.6 hPa Calm     97% 0.0 mm 204 W/m2
09:24 5.1 °C 4.7 °C 1018.6 hPa ENE 1.4 km/h 4.8 km/h 97% 0.0 mm 190 W/m2
09:29 5.3 °C 4.9 °C 1018.6 hPa Calm   3.2 km/h 97% 0.0 mm 132 W/m2
09:34 5.4 °C 5 °C 1019.0 hPa Calm   4.8 km/h 97% 0.0 mm 67 W/m2
09:39 5.6 °C 5.2 °C 1019.0 hPa Calm     97% 0.0 mm 62 W/m2
09:44 5.7 °C 5.3 °C 1018.6 hPa Calm     97% 0.0 mm 95 W/m2
09:49 5.8 °C 5.4 °C 1018.6 hPa East 3.2 km/h 4.8 km/h 97% 0.0 mm 113 W/m2
09:54 6 °C 5.6 °C 1018.6 hPa ESE 1.4 km/h 4.8 km/h 97% 0.0 mm 127 W/m2
09:59 6.2 °C 5.8 °C 1018.6 hPa East 4.7 km/h 4.8 km/h 97% 0.0 mm 125 W/m2
10:04 6.3 °C 5.9 °C 1018.6 hPa ESE 3.2 km/h 4.8 km/h 97% 0.0 mm 116 W/m2
10:09 6.3 °C 5.9 °C 1018.6 hPa East 1.4 km/h 4.8 km/h 97% 0.0 mm 118 W/m2
10:14 6.4 °C 6 °C 1018.6 hPa East 3.2 km/h 4.8 km/h 97% 0.0 mm 134 W/m2
10:19 6.5 °C 6.1 °C 1018.3 hPa East 1.4 km/h 6.4 km/h 97% 0.0 mm 153 W/m2
10:24 6.7 °C 6.3 °C 1018.6 hPa NE 1.4 km/h 3.2 km/h 97% 0.0 mm 156 W/m2
10:29 6.8 °C 6.4 °C 1019.0 hPa North 1.4 km/h 6.4 km/h 97% 0.0 mm 160 W/m2
10:34 6.8 °C 6.4 °C 1019.0 hPa Calm   1.6 km/h 97% 0.0 mm 160 W/m2
10:39 6.9 °C 6.5 °C 1019.0 hPa Calm     97% 0.0 mm 200 W/m2
10:44 7.2 °C 6.8 °C 1019.0 hPa Calm     97% 0.0 mm 139 W/m2
10:49 7.3 °C 6.9 °C 1019.0 hPa Calm     97% 0.0 mm 229 W/m2
10:54 7.6 °C 7.2 °C 1019.0 hPa Calm     97% 0.0 mm 181 W/m2
10:59 7.8 °C 7.4 °C 1019.0 hPa Calm     97% 0.0 mm 257 W/m2
11:04 8 °C 7.6 °C 1019.0 hPa Calm   1.6 km/h 97% 0.0 mm 348 W/m2
11:09 8.2 °C 7.8 °C 1019.0 hPa Calm     97% 0.0 mm 213 W/m2
11:14 8.4 °C 8 °C 1019.0 hPa Calm     97% 0.0 mm 311 W/m2
11:19 8.8 °C 8.3 °C 1019.0 hPa Calm     97% 0.0 mm 241 W/m2
11:24 9.2 °C 8.7 °C 1019.0 hPa Calm     97% 0.0 mm 232 W/m2
11:29 9.5 °C 9 °C 1019.0 hPa Calm   1.6 km/h 97% 0.0 mm 260 W/m2
11:34 9.9 °C 9.3 °C 1019.0 hPa Calm   1.6 km/h 96% 0.0 mm 287 W/m2
11:39 10.4 °C 9.6 °C 1019.0 hPa NW 1.4 km/h 6.4 km/h 95% 0.0 mm 378 W/m2
11:44 11 °C 9.6 °C 1019.0 hPa NNW 1.4 km/h 3.2 km/h 91% 0.0 mm 410 W/m2
11:50 11.4 °C 9.5 °C 1019.0 hPa WNW 3.2 km/h 4.8 km/h 88% 0.0 mm 185 W/m2
11:55 11.6 °C 9.2 °C 1019.0 hPa WNW 3.2 km/h 3.2 km/h 85% 0.0 mm 422 W/m2
12:00 11.7 °C 9.3 °C 1019.0 hPa West 1.4 km/h 4.8 km/h 85% 0.0 mm 149 W/m2
12:05 12 °C 9 °C 1019.0 hPa Calm   4.8 km/h 82% 0.0 mm 156 W/m2
12:10 12.2 °C 9 °C 1019.0 hPa NNE 1.4 km/h 3.2 km/h 81% 0.0 mm 165 W/m2
12:15 12.4 °C 9 °C 1018.6 hPa NNW 1.4 km/h 6.4 km/h 80% 0.0 mm 167 W/m2
12:20 12.6 °C 9.1 °C 1019.0 hPa Calm   1.6 km/h 79% 0.0 mm 163 W/m2
12:25 12.7 °C 9.2 °C 1019.0 hPa Calm   6.4 km/h 79% 0.0 mm 176 W/m2
12:30 12.8 °C 9.2 °C 1018.6 hPa Calm   3.2 km/h 79% 0.0 mm 207 W/m2
12:35 12.9 °C 9.3 °C 1018.6 hPa NW 4.7 km/h 4.8 km/h 79% 0.0 mm 246 W/m2
12:40 13.1 °C 9.2 °C 1019.0 hPa WNW 3.2 km/h 8 km/h 77% 0.0 mm 246 W/m2
12:45 13.2 °C 9.1 °C 1019.0 hPa West 3.2 km/h 6.4 km/h 76% 0.0 mm 202 W/m2
12:50 13.2 °C 9.1 °C 1019.0 hPa NW 4.7 km/h 8 km/h 76% 0.0 mm 207 W/m2
12:55 13.2 °C 9.3 °C 1018.6 hPa Calm   4.8 km/h 77% 0.0 mm 192 W/m2
13:00 13.2 °C 9.3 °C 1019.0 hPa WSW 6.4 km/h 8 km/h 77% 0.0 mm 197 W/m2
13:05 13.2 °C 9.3 °C 1018.6 hPa West 1.4 km/h 8 km/h 77% 0.0 mm 174 W/m2
13:10 13.1 °C 9.2 °C 1019.0 hPa NW 3.2 km/h 8 km/h 77% 0.0 mm 162 W/m2
13:15 13.2 °C 9.3 °C 1019.0 hPa WNW 3.2 km/h 4.8 km/h 77% 0.0 mm 141 W/m2
13:20 13.2 °C 9.4 °C 1019.0 hPa West 1.4 km/h 3.2 km/h 78% 0.0 mm 146 W/m2
13:25 13.1 °C 9.4 °C 1019.0 hPa West 9.7 km/h 11.3 km/h 78% 0.0 mm 141 W/m2
13:30 13.2 °C 9.4 °C 1019.0 hPa WNW 1.4 km/h 4.8 km/h 78% 0.0 mm 185 W/m2
13:35 13.2 °C 9.3 °C 1018.6 hPa ENE 1.4 km/h 3.2 km/h 77% 0.0 mm 352 W/m2
13:40 13.3 °C 9.4 °C 1018.6 hPa West 4.7 km/h 11.3 km/h 77% 0.0 mm 287 W/m2
13:45 13.4 °C 9.4 °C 1018.6 hPa West 3.2 km/h 4.8 km/h 77% 0.0 mm 125 W/m2
13:50 13.4 °C 9.4 °C 1018.6 hPa West 6.4 km/h 9.7 km/h 77% 0.0 mm 118 W/m2
13:55 13.6 °C 9.4 °C 1018.6 hPa SSW 1.4 km/h 6.4 km/h 76% 0.0 mm 120 W/m2
14:00 13.7 °C 9.5 °C 1018.6 hPa WSW 4.7 km/h 6.4 km/h 76% 0.0 mm 114 W/m2
14:05 13.7 °C 9.3 °C 1018.6 hPa West 1.4 km/h 6.4 km/h 75% 0.0 mm 125 W/m2
14:10 13.9 °C 9.7 °C 1018.6 hPa North 3.2 km/h 3.2 km/h 76% 0.0 mm 211 W/m2
14:15 14.2 °C 9.4 °C 1018.3 hPa West 4.7 km/h 11.3 km/h 73% 0.0 mm 285 W/m2
14:20 14.3 °C 9.3 °C 1018.6 hPa West 3.2 km/h 11.3 km/h 72% 0.0 mm 234 W/m2
14:25 14.4 °C 9.4 °C 1018.3 hPa West 6.4 km/h 12.9 km/h 72% 0.0 mm 181 W/m2
14:30 14.4 °C 9.4 °C 1018.3 hPa WSW 6.4 km/h 9.7 km/h 72% 0.0 mm 179 W/m2
14:35 14.3 °C 9.3 °C 1018.3 hPa WSW 1.4 km/h 12.9 km/h 72% 0.0 mm 132 W/m2
14:40 14.3 °C 9.5 °C 1018.3 hPa WNW 6.4 km/h 8 km/h 73% 0.0 mm 125 W/m2
14:45 14.3 °C 9.5 °C 1018.3 hPa WNW 4.7 km/h 6.4 km/h 73% 0.0 mm 125 W/m2
14:50 14.4 °C 9.6 °C 1018.3 hPa WNW 3.2 km/h 6.4 km/h 73% 0.0 mm 149 W/m2
14:55 14.4 °C 9.4 °C 1018.3 hPa West 4.7 km/h 11.3 km/h 72% 0.0 mm 104 W/m2
15:00 14.5 °C 9.7 °C 1018.3 hPa WSW 6.4 km/h 12.9 km/h 73% 0.0 mm 102 W/m2
15:05 14.6 °C 9.6 °C 1018.3 hPa NW 4.7 km/h 12.9 km/h 72% 0.0 mm 114 W/m2
15:10 14.7 °C 9.9 °C 1018.0 hPa NW 3.2 km/h 9.7 km/h 73% 0.0 mm 178 W/m2
15:15 14.8 °C 9.8 °C 1018.0 hPa WSW 4.7 km/h 14.5 km/h 72% 0.0 mm 216 W/m2
15:20 14.9 °C 9.9 °C 1018.0 hPa WNW 1.4 km/h 4.8 km/h 72% 0.0 mm 227 W/m2
15:25 15 °C 10 °C 1018.0 hPa West 1.4 km/h 3.2 km/h 72% 0.0 mm 146 W/m2
15:30 15.1 °C 9.9 °C 1018.0 hPa WNW 3.2 km/h 11.3 km/h 71% 0.0 mm 134 W/m2
15:35 15 °C 10 °C 1018.0 hPa West 3.2 km/h 4.8 km/h 72% 0.0 mm 128 W/m2
15:40 14.9 °C 9.9 °C 1018.0 hPa WNW 1.4 km/h 12.9 km/h 72% 0.0 mm 100 W/m2
15:45 14.8 °C 9.8 °C 1018.3 hPa Calm   11.3 km/h 72% 0.0 mm 113 W/m2
15:50 14.8 °C 10 °C 1018.3 hPa WSW 1.4 km/h 8 km/h 73% 0.0 mm 121 W/m2
15:55 14.7 °C 9.9 °C 1018.0 hPa West 3.2 km/h 4.8 km/h 73% 0.0 mm 104 W/m2
16:00 14.6 °C 9.8 °C 1018.3 hPa WNW 3.2 km/h 4.8 km/h 73% 0.0 mm 88 W/m2
16:05 14.6 °C 10 °C 1018.3 hPa WSW 3.2 km/h 4.8 km/h 74% 0.0 mm 77 W/m2
16:10 14.6 °C 10 °C 1018.3 hPa WNW 3.2 km/h 6.4 km/h 74% 0.0 mm 111 W/m2
16:15 14.7 °C 10.1 °C 1018.0 hPa Calm   4.8 km/h 74% 0.0 mm 65 W/m2
16:20 14.7 °C 10.1 °C 1018.0 hPa West 3.2 km/h 4.8 km/h 74% 0.0 mm 56 W/m2
16:25 14.7 °C 10.1 °C 1018.0 hPa West 1.4 km/h 3.2 km/h 74% 0.0 mm 56 W/m2
16:30 14.6 °C 10.2 °C 1018.0 hPa Calm   4.8 km/h 75% 0.0 mm 53 W/m2
16:35 14.6 °C 10.2 °C 1018.0 hPa West 6.4 km/h 11.3 km/h 75% 0.0 mm 77 W/m2
16:40 14.6 °C 10.2 °C 1018.0 hPa WSW 6.4 km/h 6.4 km/h 75% 0.0 mm 51 W/m2
16:45 14.6 °C 10.2 °C 1018.0 hPa West 1.4 km/h 6.4 km/h 75% 0.0 mm 53 W/m2
16:50 14.7 °C 10.3 °C 1018.0 hPa West 9.7 km/h 12.9 km/h 75% 0.0 mm 113 W/m2
16:55 14.7 °C 10.3 °C 1018.0 hPa West 3.2 km/h 6.4 km/h 75% 0.0 mm 244 W/m2
17:00 14.6 °C 10.4 °C 1018.0 hPa WNW 13 km/h 16.1 km/h 76% 0.0 mm 69 W/m2
17:05 14.6 °C 10.2 °C 1018.0 hPa WNW 4.7 km/h 12.9 km/h 75% 0.0 mm 67 W/m2
17:10 14.6 °C 10.4 °C 1018.0 hPa WSW 3.2 km/h 16.1 km/h 76% 0.0 mm 79 W/m2
17:15 14.6 °C 10.2 °C 1018.0 hPa WNW 3.2 km/h 9.7 km/h 75% 0.0 mm 76 W/m2
17:20 14.5 °C 10.3 °C 1018.0 hPa West 1.4 km/h 6.4 km/h 76% 0.0 mm 79 W/m2
17:25 14.4 °C 10.2 °C 1018.0 hPa West 1.4 km/h 4.8 km/h 76% 0.0 mm 54 W/m2
17:30 14.3 °C 10.3 °C 1018.3 hPa West 1.4 km/h 3.2 km/h 77% 0.0 mm 49 W/m2
17:35 14.3 °C 10.3 °C 1018.3 hPa West 3.2 km/h 3.2 km/h 77% 0.0 mm 42 W/m2
17:40 14.2 °C 10.4 °C 1018.3 hPa West 3.2 km/h 4.8 km/h 78% 0.0 mm 44 W/m2
17:45 14.1 °C 10.3 °C 1018.3 hPa West 3.2 km/h 3.2 km/h 78% 0.0 mm 28 W/m2
17:50 13.9 °C 10.3 °C 1018.3 hPa West 1.4 km/h 3.2 km/h 79% 0.0 mm 30 W/m2
17:55 13.8 °C 10.2 °C 1018.3 hPa West 3.2 km/h 4.8 km/h 79% 0.0 mm 30 W/m2
18:01 13.6 °C 10 °C 1018.3 hPa WSW 4.7 km/h 9.7 km/h 79% 0.0 mm 26 W/m2
18:06 13.6 °C 10 °C 1018.3 hPa West 4.7 km/h 4.8 km/h 79% 0.0 mm 21 W/m2
18:11 13.4 °C 9.8 °C 1018.3 hPa WSW 1.4 km/h 6.4 km/h 79% 0.0 mm 21 W/m2
18:16 13.4 °C 10 °C 1018.3 hPa West 3.2 km/h 6.4 km/h 80% 0.0 mm 25 W/m2
18:21 13.3 °C 9.9 °C 1018.3 hPa West 3.2 km/h 4.8 km/h 80% 0.0 mm 23 W/m2
18:26 13.3 °C 10.1 °C 1018.3 hPa West 4.7 km/h 4.8 km/h 81% 0.0 mm 16 W/m2
18:31 13.2 °C 10 °C 1018.3 hPa West 4.7 km/h 4.8 km/h 81% 0.0 mm 12 W/m2
18:36 13.2 °C 10 °C 1018.3 hPa West 3.2 km/h 4.8 km/h 81% 0.0 mm 9 W/m2
18:41 13.1 °C 10.1 °C 1018.3 hPa West 3.2 km/h 6.4 km/h 82% 0.0 mm 7 W/m2
18:46 12.9 °C 9.9 °C 1018.6 hPa WNW 4.7 km/h 9.7 km/h 82% 0.0 mm 0 W/m2
18:51 12.9 °C 10.1 °C 1018.6 hPa West 6.4 km/h 6.4 km/h 83% 0.0 mm 0 W/m2
18:56 12.8 °C 10 °C 1018.6 hPa West 3.2 km/h 9.7 km/h 83% 0.0 mm 0 W/m2
19:01 12.8 °C 10 °C 1018.6 hPa West 1.4 km/h 6.4 km/h 83% 0.0 mm 0 W/m2
19:06 12.8 °C 10 °C 1018.6 hPa Calm     83% 0.0 mm 0 W/m2
19:11 12.8 °C 10.2 °C 1019.0 hPa West 1.4 km/h 6.4 km/h 84% 0.0 mm 0 W/m2
19:16 12.8 °C 10.2 °C 1019.0 hPa West 1.4 km/h 1.6 km/h 84% 0.0 mm 0 W/m2
19:21 12.7 °C 10.1 °C 1019.0 hPa West 3.2 km/h 3.2 km/h 84% 0.0 mm 0 W/m2
19:26 12.7 °C 10.2 °C 1019.0 hPa WNW 3.2 km/h 4.8 km/h 85% 0.0 mm 0 W/m2
19:31 12.7 °C 10.2 °C 1019.0 hPa West 1.4 km/h 3.2 km/h 85% 0.0 mm 0 W/m2
19:36 12.7 °C 10.2 °C 1019.0 hPa West 1.4 km/h 4.8 km/h 85% 0.0 mm 0 W/m2
19:41 12.7 °C 10.2 °C 1019.0 hPa West 3.2 km/h 3.2 km/h 85% 0.0 mm 0 W/m2
19:46 12.7 °C 10.2 °C 1019.0 hPa West 3.2 km/h 3.2 km/h 85% 0.0 mm 0 W/m2
19:51 12.7 °C 10.2 °C 1019.0 hPa West 3.2 km/h 4.8 km/h 85% 0.0 mm 0 W/m2
19:56 12.7 °C 10.2 °C 1019.3 hPa Calm   1.6 km/h 85% 0.0 mm 0 W/m2
20:01 12.8 °C 10.3 °C 1019.3 hPa NNW 3.2 km/h 4.8 km/h 85% 0.0 mm 0 W/m2
20:06 12.7 °C 10.2 °C 1019.3 hPa West 1.4 km/h 4.8 km/h 85% 0.0 mm 0 W/m2
20:11 12.7 °C 10.4 °C 1019.3 hPa West 4.7 km/h 4.8 km/h 86% 0.0 mm 0 W/m2
20:16 12.6 °C 10.3 °C 1019.3 hPa Calm     86% 0.0 mm 0 W/m2
20:21 12.6 °C 10.5 °C 1019.3 hPa North 1.4 km/h 4.8 km/h 87% 0.0 mm 0 W/m2
20:26 12.6 °C 10.5 °C 1019.3 hPa Calm   1.6 km/h 87% 0.0 mm 0 W/m2
20:31 12.5 °C 10.4 °C 1019.6 hPa Calm   4.8 km/h 87% 0.0 mm 0 W/m2
20:36 12.4 °C 10.5 °C 1019.6 hPa Calm     88% 0.0 mm 0 W/m2
20:41 12.4 °C 10.5 °C 1019.6 hPa NNW 1.4 km/h 1.6 km/h 88% 0.0 mm 0 W/m2
20:46 12.3 °C 10.5 °C 1019.6 hPa Calm   3.2 km/h 89% 0.0 mm 0 W/m2
20:51 12.4 °C 10.6 °C 1019.6 hPa West 1.4 km/h 3.2 km/h 89% 0.0 mm 0 W/m2
20:56 12.4 °C 10.6 °C 1019.6 hPa NW 1.4 km/h 3.2 km/h 89% 0.0 mm 0 W/m2
21:01 12.4 °C 10.6 °C 1019.6 hPa Calm   1.6 km/h 89% 0.0 mm 0 W/m2
21:06 12.5 °C 10.7 °C 1019.6 hPa NW 4.7 km/h 6.4 km/h 89% 0.0 mm 0 W/m2
21:11 12.5 °C 10.7 °C 1019.6 hPa Calm   1.6 km/h 89% 0.0 mm 0 W/m2
21:16 12.4 °C 10.6 °C 1019.6 hPa Calm   6.4 km/h 89% 0.0 mm 0 W/m2
21:21 12.5 °C 10.7 °C 1019.6 hPa WNW 1.4 km/h 6.4 km/h 89% 0.0 mm 0 W/m2
21:26 12.5 °C 10.7 °C 1019.6 hPa East 4.7 km/h 4.8 km/h 89% 0.0 mm 0 W/m2
21:31 12.5 °C 10.7 °C 1019.6 hPa North 1.4 km/h 3.2 km/h 89% 0.0 mm 0 W/m2
21:36 12.4 °C 10.6 °C 1020.0 hPa Calm   1.6 km/h 89% 0.0 mm 0 W/m2
21:41 12.4 °C 10.6 °C 1020.0 hPa NNE 1.4 km/h 6.4 km/h 89% 0.0 mm 0 W/m2
21:46 12.4 °C 10.6 °C 1020.0 hPa NE 3.2 km/h 4.8 km/h 89% 0.0 mm 0 W/m2
21:51 12.4 °C 10.6 °C 1020.0 hPa Calm   3.2 km/h 89% 0.0 mm 0 W/m2
21:56 12.3 °C 10.5 °C 1020.0 hPa Calm     89% 0.0 mm 0 W/m2
22:01 12.3 °C 10.4 °C 1020.0 hPa Calm   3.2 km/h 88% 0.0 mm 0 W/m2
22:06 12.2 °C 10.3 °C 1020.0 hPa Calm   1.6 km/h 88% 0.0 mm 0 W/m2
22:11 12.2 °C 10.3 °C 1020.0 hPa Calm   1.6 km/h 88% 0.0 mm 0 W/m2
22:16 12.1 °C 10.2 °C 1020.0 hPa Calm     88% 0.0 mm 0 W/m2
22:21 12.1 °C 10.2 °C 1020.0 hPa North 1.4 km/h 4.8 km/h 88% 0.0 mm 0 W/m2
22:26 12 °C 9.9 °C 1020.0 hPa ENE 4.7 km/h 6.4 km/h 87% 0.0 mm 0 W/m2
22:31 11.9 °C 9.8 °C 1020.0 hPa Calm   4.8 km/h 87% 0.0 mm 0 W/m2
22:36 11.9 °C 9.8 °C 1020.0 hPa East 3.2 km/h 6.4 km/h 87% 0.0 mm 0 W/m2
22:41 11.8 °C 9.7 °C 1020.0 hPa NE 1.4 km/h 1.6 km/h 87% 0.0 mm 0 W/m2
22:46 11.7 °C 9.6 °C 1020.0 hPa ENE 1.4 km/h 3.2 km/h 87% 0.0 mm 0 W/m2
22:51 11.7 °C 9.6 °C 1020.0 hPa ENE 1.4 km/h 3.2 km/h 87% 0.0 mm 0 W/m2
22:57 11.6 °C 9.7 °C 1020.0 hPa NNE 1.4 km/h 1.6 km/h 88% 0.0 mm 0 W/m2
23:02 11.5 °C 9.6 °C 1020.0 hPa ENE 3.2 km/h 4.8 km/h 88% 0.0 mm 0 W/m2
23:07 11.4 °C 9.5 °C 1020.0 hPa East 3.2 km/h 3.2 km/h 88% 0.0 mm 0 W/m2
23:12 11.4 °C 9.5 °C 1020.3 hPa NNW 1.4 km/h 4.8 km/h 88% 0.0 mm 0 W/m2
23:17 11.4 °C 9.5 °C 1020.3 hPa SSE 1.4 km/h 4.8 km/h 88% 0.0 mm 0 W/m2
23:22 11.3 °C 9.4 °C 1020.3 hPa Calm   1.6 km/h 88% 0.0 mm 0 W/m2
23:27 11.3 °C 9.4 °C 1020.3 hPa Calm   4.8 km/h 88% 0.0 mm 0 W/m2
23:32 11.2 °C 9.5 °C 1020.3 hPa Calm   4.8 km/h 89% 0.0 mm 0 W/m2
23:37 11.2 °C 9.5 °C 1020.3 hPa SSW 1.4 km/h 3.2 km/h 89% 0.0 mm 0 W/m2
23:42 11.1 °C 9.4 °C 1020.3 hPa NW 3.2 km/h 3.2 km/h 89% 0.0 mm 0 W/m2
23:47 11.1 °C 9.4 °C 1020.3 hPa Calm   3.2 km/h 89% 0.0 mm 0 W/m2
23:52 11.1 °C 9.4 °C 1020.3 hPa East 1.4 km/h 3.2 km/h 89% 0.0 mm 0 W/m2
23:57 11 °C 9.3 °C 1020.3 hPa Calm   1.6 km/h 89% 0.0 mm 0 W/m2
Juneau County Weather
Compliments of Weather Underground - 4 mb